Time;durP1;ratioP1;P1;durP2;ratioP2;P2;SDS_P1;SDS_P2;PMS_P1;PMS_P2;Temp;Humidity;BMP_temperature;BMP_pressure;BME280_temperature;BME280_humidity;BME280_pressure;Samples;Min_cycle;Max_cycle;Signal;HPM_P1;HPM_P2
2021/11/07 00:00:57;;;;;;;16.03;14.57;;;10.20;99.90;;;;;;5093949;28;20950;-72
2021/11/07 00:03:29;;;;;;;13.60;12.77;;;10.20;99.90;;;;;;5094802;28;20461;-72
2021/11/07 00:06:02;;;;;;;14.73;13.73;;;10.20;99.90;;;;;;5095387;28;20536;-69
2021/11/07 00:08:42;;;;;;;15.27;13.97;;;10.20;99.90;;;;;;5097306;28;20558;-70
2021/11/07 00:11:19;;;;;;;14.30;13.30;;;10.20;99.90;;;;;;5091638;28;20890;-69
2021/11/07 00:13:47;;;;;;;14.70;13.60;;;10.10;99.90;;;;;;5091744;28;20461;-69
2021/11/07 00:16:20;;;;;;;16.30;14.33;;;10.00;99.90;;;;;;5097648;28;20810;-70
2021/11/07 00:18:58;;;;;;;13.43;12.60;;;10.00;99.90;;;;;;5089053;28;20603;-70
2021/11/07 00:21:27;;;;;;;14.87;13.43;;;9.90;99.90;;;;;;5091209;28;20470;-69
2021/11/07 00:24:00;;;;;;;14.87;13.77;;;9.90;99.90;;;;;;5097639;28;21168;-69
2021/11/07 00:26:30;;;;;;;16.33;14.53;;;9.80;99.90;;;;;;5095232;28;20543;-70
2021/11/07 00:29:01;;;;;;;15.77;14.27;;;9.60;99.90;;;;;;5093087;28;20468;-69
2021/11/07 00:31:34;;;;;;;17.93;16.53;;;9.60;99.90;;;;;;5097967;28;20487;-69
2021/11/07 00:36:51;;;;;;;19.20;17.60;;;9.40;99.90;;;;;;5094918;28;20470;-68
2021/11/07 00:39:21;;;;;;;19.13;17.20;;;9.30;99.90;;;;;;5100986;28;20491;-72
2021/11/07 00:41:53;;;;;;;18.23;16.40;;;9.20;99.90;;;;;;5097782;28;20505;-71
2021/11/07 00:44:29;;;;;;;17.90;16.27;;;9.20;99.90;;;;;;5094583;28;20460;-68
2021/11/07 00:46:58;;;;;;;19.40;17.70;;;9.10;99.90;;;;;;5097494;28;20449;-68
2021/11/07 00:49:33;;;;;;;19.17;17.57;;;9.10;99.90;;;;;;5107929;28;20471;-68
2021/11/07 00:52:15;;;;;;;19.37;17.77;;;9.10;99.90;;;;;;5103922;28;20910;-68
2021/11/07 00:54:48;;;;;;;17.50;15.93;;;9.10;99.90;;;;;;5093906;28;20469;-68
2021/11/07 00:57:19;;;;;;;22.20;17.57;;;9.00;99.90;;;;;;5098461;28;20467;-68
2021/11/07 00:59:52;;;;;;;18.23;16.90;;;9.00;99.90;;;;;;5098499;28;20547;-69
2021/11/07 01:02:23;;;;;;;21.17;18.17;;;9.00;99.90;;;;;;5101931;28;20472;-70
2021/11/07 01:04:52;;;;;;;18.70;17.33;;;9.00;99.90;;;;;;5098958;28;20907;-68
2021/11/07 01:07:23;;;;;;;19.43;17.50;;;9.00;99.90;;;;;;5090788;28;20966;-68
2021/11/07 01:09:50;;;;;;;18.17;16.63;;;8.90;99.90;;;;;;5095910;28;20501;-69
2021/11/07 01:12:17;;;;;;;20.40;18.37;;;9.00;99.90;;;;;;5094910;28;20457;-71
2021/11/07 01:14:44;;;;;;;18.70;17.10;;;9.00;99.90;;;;;;5095101;28;20458;-70
2021/11/07 01:17:11;;;;;;;18.20;16.87;;;9.00;99.90;;;;;;5099104;28;20471;-68
2021/11/07 01:19:38;;;;;;;19.97;18.17;;;9.00;99.90;;;;;;5102670;28;20511;-72
2021/11/07 01:22:11;;;;;;;19.87;18.10;;;9.00;99.90;;;;;;5096489;28;20474;-69
2021/11/07 01:24:41;;;;;;;18.20;16.63;;;9.00;99.90;;;;;;5094572;28;20462;-69
2021/11/07 01:27:18;;;;;;;18.57;15.77;;;9.00;99.90;;;;;;5097025;28;20464;-68
2021/11/07 01:29:48;;;;;;;17.17;15.87;;;9.10;99.90;;;;;;5094282;28;20453;-71
2021/11/07 01:32:16;;;;;;;18.57;17.00;;;9.00;99.90;;;;;;5099334;28;20875;-68
2021/11/07 01:34:56;;;;;;;18.87;17.00;;;9.00;99.90;;;;;;5103026;28;20811;-70
2021/11/07 01:37:28;;;;;;;17.53;16.10;;;9.00;99.90;;;;;;5096949;28;20466;-70
2021/11/07 01:39:59;;;;;;;17.90;16.07;;;9.00;99.90;;;;;;5097984;28;20518;-68
2021/11/07 01:42:32;;;;;;;19.90;18.00;;;9.00;99.90;;;;;;5100477;28;21073;-70
2021/11/07 01:45:03;;;;;;;18.57;16.93;;;9.00;99.90;;;;;;5095861;28;20468;-67
2021/11/07 01:47:31;;;;;;;18.97;17.50;;;8.90;99.90;;;;;;5100527;28;20509;-71
2021/11/07 01:49:57;;;;;;;18.47;17.07;;;8.90;99.90;;;;;;5091113;28;20481;-68
2021/11/07 01:52:26;;;;;;;24.10;18.20;;;8.80;99.90;;;;;;5098732;28;20466;-68
2021/11/07 01:54:57;;;;;;;19.33;17.60;;;8.80;99.90;;;;;;5096719;28;21207;-69
2021/11/07 01:57:27;;;;;;;18.20;16.80;;;8.70;99.90;;;;;;5093384;28;20460;-73
2021/11/07 01:59:56;;;;;;;19.47;18.03;;;8.70;99.90;;;;;;5097749;28;20496;-71
2021/11/07 02:02:26;;;;;;;21.90;20.30;;;8.70;99.90;;;;;;5096015;28;20965;-71
2021/11/07 02:04:53;;;;;;;23.07;21.47;;;8.70;99.90;;;;;;5099513;28;20833;-72
2021/11/07 02:07:20;;;;;;;23.10;21.40;;;8.70;99.90;;;;;;5096946;28;20553;-72
2021/11/07 02:09:50;;;;;;;21.10;19.60;;;8.70;99.90;;;;;;5091954;28;20464;-69
2021/11/07 02:12:19;;;;;;;24.70;23.00;;;8.60;99.90;;;;;;5097799;28;20457;-69
2021/11/07 02:14:46;;;;;;;25.40;23.53;;;8.60;99.90;;;;;;5094052;28;20554;-68
2021/11/07 02:17:14;;;;;;;25.57;23.10;;;8.70;99.90;;;;;;5093075;28;20459;-69
2021/11/07 02:19:43;;;;;;;25.20;23.40;;;8.60;99.90;;;;;;5097371;28;20489;-69
2021/11/07 02:22:12;;;;;;;25.97;24.00;;;8.60;99.90;;;;;;5101718;28;20572;-70
2021/11/07 02:24:40;;;;;;;27.47;25.20;;;8.70;99.90;;;;;;5097002;28;20462;-69
2021/11/07 02:27:07;;;;;;;26.50;24.20;;;8.70;99.90;;;;;;5094571;28;20466;-70
2021/11/07 02:29:36;;;;;;;25.47;23.47;;;8.70;99.90;;;;;;5106044;28;20466;-69
2021/11/07 02:32:04;;;;;;;25.67;23.63;;;8.60;99.90;;;;;;5094492;28;20486;-69
2021/11/07 02:34:31;;;;;;;27.83;25.63;;;8.60;99.90;;;;;;5095136;28;20457;-71
2021/11/07 02:36:58;;;;;;;28.30;26.20;;;8.70;99.90;;;;;;5094730;28;20460;-70
2021/11/07 02:39:28;;;;;;;27.53;25.50;;;8.70;99.90;;;;;;5099958;28;20497;-69
2021/11/07 02:41:55;;;;;;;29.53;27.20;;;8.70;99.90;;;;;;5089063;28;20472;-69
2021/11/07 02:44:34;;;;;;;28.10;25.80;;;8.70;99.90;;;;;;5095740;28;20469;-71
2021/11/07 02:47:04;;;;;;;29.47;26.53;;;8.70;99.90;;;;;;5095178;28;20506;-69
2021/11/07 02:49:31;;;;;;;27.00;25.07;;;8.70;99.90;;;;;;5096013;28;20468;-69
2021/11/07 02:51:59;;;;;;;28.43;26.43;;;8.70;99.90;;;;;;5094047;28;20490;-72
2021/11/07 02:54:29;;;;;;;28.43;26.00;;;8.70;99.90;;;;;;5092260;28;20462;-69
2021/11/07 02:56:57;;;;;;;27.80;25.77;;;8.70;99.90;;;;;;5096697;28;20454;-70
2021/11/07 02:59:26;;;;;;;27.73;25.63;;;8.70;99.90;;;;;;5091991;28;20565;-71
2021/11/07 03:01:54;;;;;;;30.50;27.60;;;8.70;99.90;;;;;;5095945;28;20458;-70
2021/11/07 03:04:21;;;;;;;31.63;28.83;;;8.70;99.90;;;;;;5097036;28;20479;-71
2021/11/07 03:06:48;;;;;;;33.10;30.60;;;8.80;99.90;;;;;;5096478;28;21213;-72
2021/11/07 03:09:17;;;;;;;32.00;29.30;;;8.80;99.90;;;;;;5096415;28;20467;-69
2021/11/07 03:11:46;;;;;;;32.23;29.63;;;8.80;99.90;;;;;;5097103;28;20560;-70
2021/11/07 03:14:17;;;;;;;32.23;29.63;;;8.80;99.90;;;;;;5096298;28;20528;-69
2021/11/07 03:16:45;;;;;;;30.80;28.37;;;8.80;99.90;;;;;;5092894;28;20457;-72
2021/11/07 03:19:12;;;;;;;32.13;29.60;;;8.80;99.90;;;;;;5091970;28;20479;-71
2021/11/07 03:21:39;;;;;;;31.17;28.83;;;8.90;99.90;;;;;;5094914;28;20993;-70
2021/11/07 03:24:07;;;;;;;32.33;29.27;;;8.90;99.90;;;;;;5090735;28;20462;-71
2021/11/07 03:26:37;;;;;;;33.23;30.70;;;8.90;99.90;;;;;;5089116;28;20813;-70
2021/11/07 03:29:08;;;;;;;31.13;28.63;;;8.90;99.90;;;;;;5092918;28;20458;-72
2021/11/07 03:31:44;;;;;;;31.17;28.80;;;9.00;99.90;;;;;;5096430;28;20487;-71
2021/11/07 03:34:16;;;;;;;30.47;28.20;;;9.00;99.90;;;;;;5098566;28;20509;-72
2021/11/07 03:36:46;;;;;;;30.53;28.33;;;9.00;99.90;;;;;;5096025;28;20460;-70
2021/11/07 03:39:15;;;;;;;30.10;27.33;;;9.00;99.90;;;;;;5088890;28;20518;-70
2021/11/07 03:41:42;;;;;;;29.83;27.60;;;9.00;99.90;;;;;;5096501;28;20478;-71
2021/11/07 03:44:11;;;;;;;23.80;22.20;;;9.10;99.90;;;;;;5092600;28;20790;-71
2021/11/07 03:46:39;;;;;;;27.80;25.73;;;9.00;99.90;;;;;;5094079;28;20467;-74
2021/11/07 03:49:08;;;;;;;29.50;27.20;;;9.00;99.90;;;;;;5092977;28;20458;-71
2021/11/07 03:51:36;;;;;;;26.90;24.77;;;9.10;99.90;;;;;;5100290;28;20458;-71
2021/11/07 03:54:03;;;;;;;26.67;24.63;;;9.10;99.90;;;;;;5096815;28;20553;-71
2021/11/07 03:56:30;;;;;;;29.27;26.90;;;9.10;99.90;;;;;;5088989;28;20966;-74
2021/11/07 03:58:57;;;;;;;28.03;25.90;;;9.10;99.90;;;;;;5095820;28;20462;-72
2021/11/07 04:01:26;;;;;;;24.27;22.40;;;9.20;99.90;;;;;;5098026;28;20556;-73
2021/11/07 04:03:54;;;;;;;26.57;24.20;;;9.10;99.90;;;;;;5096422;28;20840;-70
2021/11/07 04:06:21;;;;;;;25.87;24.07;;;9.10;99.90;;;;;;5091791;28;20461;-76
2021/11/07 04:08:48;;;;;;;26.83;24.63;;;9.20;99.90;;;;;;5094157;28;20459;-74
2021/11/07 04:11:15;;;;;;;26.73;24.80;;;9.20;99.90;;;;;;5098168;28;20819;-73
2021/11/07 04:13:42;;;;;;;26.97;24.80;;;9.20;99.90;;;;;;5098779;28;20455;-74
2021/11/07 04:16:11;;;;;;;27.03;24.80;;;9.20;99.90;;;;;;5098077;28;20489;-74
2021/11/07 04:18:41;;;;;;;25.80;23.60;;;9.20;99.90;;;;;;5097483;28;20613;-71
2021/11/07 04:21:09;;;;;;;25.63;23.43;;;9.30;99.90;;;;;;5101934;28;20501;-74
2021/11/07 04:23:36;;;;;;;25.67;23.37;;;9.30;99.90;;;;;;5096428;28;21019;-73
2021/11/07 04:26:04;;;;;;;21.43;19.83;;;9.30;99.90;;;;;;5102276;28;20461;-70
2021/11/07 04:28:31;;;;;;;25.33;23.30;;;9.30;99.90;;;;;;5105332;28;21024;-72
2021/11/07 04:30:58;;;;;;;26.07;24.07;;;9.40;99.90;;;;;;5099114;28;21009;-70
2021/11/07 04:33:26;;;;;;;24.00;22.10;;;9.40;99.90;;;;;;5099899;28;20468;-73
2021/11/07 04:35:54;;;;;;;25.07;22.90;;;9.40;99.90;;;;;;5097338;28;20466;-73
2021/11/07 04:38:22;;;;;;;25.53;23.43;;;9.40;99.90;;;;;;5091065;28;21073;-74
2021/11/07 04:40:48;;;;;;;26.47;22.93;;;9.50;99.90;;;;;;5091408;28;20490;-75
2021/11/07 04:43:16;;;;;;;25.20;23.23;;;9.50;99.90;;;;;;5095590;28;20459;-73
2021/11/07 04:45:43;;;;;;;24.93;22.63;;;9.50;99.90;;;;;;5102252;28;20497;-73
2021/11/07 04:48:10;;;;;;;24.70;22.40;;;9.50;99.90;;;;;;5096258;28;21030;-71
2021/11/07 04:50:37;;;;;;;24.70;22.80;;;9.60;99.90;;;;;;5099045;28;20464;-75
2021/11/07 04:53:07;;;;;;;25.67;23.57;;;9.60;99.90;;;;;;5100598;28;20456;-72
2021/11/07 04:55:35;;;;;;;24.20;21.93;;;9.60;99.90;;;;;;5097166;28;20552;-68
2021/11/07 04:58:02;;;;;;;24.07;21.97;;;9.60;99.90;;;;;;5099232;28;20465;-68
2021/11/07 05:00:31;;;;;;;22.47;20.73;;;9.60;99.90;;;;;;5094850;28;20492;-73
2021/11/07 05:02:58;;;;;;;22.47;20.57;;;9.60;99.90;;;;;;5090078;28;20465;-73
2021/11/07 05:05:25;;;;;;;23.37;21.33;;;9.60;99.90;;;;;;5093419;28;20475;-71
2021/11/07 05:07:53;;;;;;;24.00;20.97;;;9.60;99.90;;;;;;5090589;28;20895;-70
2021/11/07 05:10:21;;;;;;;21.03;19.43;;;9.70;99.90;;;;;;5093405;28;20458;-70
2021/11/07 05:12:48;;;;;;;21.70;19.90;;;9.60;99.90;;;;;;5098548;28;20473;-71
2021/11/07 05:15:15;;;;;;;21.60;20.00;;;9.60;99.90;;;;;;5098015;28;20458;-73
2021/11/07 05:17:42;;;;;;;19.63;18.23;;;9.60;99.90;;;;;;5097016;28;20461;-71
2021/11/07 05:20:11;;;;;;;21.67;19.83;;;9.70;99.90;;;;;;5098679;28;20481;-73
2021/11/07 05:22:38;;;;;;;18.83;17.43;;;9.70;99.90;;;;;;5095231;28;20487;-71
2021/11/07 05:25:06;;;;;;;17.20;16.03;;;9.70;99.90;;;;;;5097604;28;20459;-70
2021/11/07 05:27:36;;;;;;;21.70;19.90;;;9.70;99.90;;;;;;5092150;28;20543;-72
2021/11/07 05:30:06;;;;;;;17.30;16.00;;;9.80;99.90;;;;;;5095426;28;20462;-71
2021/11/07 05:32:32;;;;;;;22.03;20.33;;;9.80;99.90;;;;;;5095171;28;20550;-73
2021/11/07 05:34:59;;;;;;;21.10;19.40;;;9.80;99.90;;;;;;5095266;28;20546;-73
2021/11/07 05:37:26;;;;;;;18.87;17.47;;;9.90;99.90;;;;;;5097796;28;20836;-70
2021/11/07 05:39:54;;;;;;;20.47;18.87;;;9.80;99.90;;;;;;5092465;28;20975;-71
2021/11/07 05:42:21;;;;;;;20.37;18.53;;;9.90;99.90;;;;;;5098863;28;20475;-71
2021/11/07 05:44:50;;;;;;;20.83;18.93;;;9.90;99.90;;;;;;5098405;28;20555;-71
2021/11/07 05:47:17;;;;;;;20.33;18.80;;;9.90;99.90;;;;;;5095888;28;20461;-74
2021/11/07 05:49:45;;;;;;;20.50;18.50;;;9.90;99.90;;;;;;5096437;28;20469;-71
2021/11/07 05:52:12;;;;;;;20.23;18.63;;;9.90;99.90;;;;;;5090903;28;20545;-71
2021/11/07 05:54:39;;;;;;;18.17;16.60;;;10.00;99.90;;;;;;5097727;28;20464;-72
2021/11/07 05:57:06;;;;;;;19.93;18.17;;;10.00;99.90;;;;;;5097134;28;20982;-71
2021/11/07 05:59:33;;;;;;;16.77;15.50;;;10.00;99.90;;;;;;5097181;28;20468;-70
2021/11/07 06:02:01;;;;;;;20.67;18.97;;;10.00;99.90;;;;;;5100731;28;20454;-75
2021/11/07 06:04:28;;;;;;;18.87;17.47;;;10.10;99.90;;;;;;5099287;28;20995;-70
2021/11/07 06:06:56;;;;;;;19.30;17.90;;;10.10;99.90;;;;;;5095873;28;20491;-72
2021/11/07 06:09:24;;;;;;;19.90;18.00;;;10.20;99.90;;;;;;5092236;28;20474;-73
2021/11/07 06:11:51;;;;;;;18.80;17.40;;;10.20;99.90;;;;;;5095754;28;20979;-71
2021/11/07 06:14:18;;;;;;;19.30;17.50;;;10.20;99.90;;;;;;5089303;28;20842;-71
2021/11/07 06:16:46;;;;;;;19.70;18.10;;;10.20;99.90;;;;;;5096142;28;20469;-70
2021/11/07 06:19:15;;;;;;;19.17;17.70;;;10.20;99.90;;;;;;5096665;28;20463;-72
2021/11/07 06:21:42;;;;;;;19.93;18.03;;;10.30;99.90;;;;;;5091244;28;21139;-71
2021/11/07 06:24:12;;;;;;;20.43;18.60;;;10.30;99.90;;;;;;5101067;28;20475;-75
2021/11/07 06:26:39;;;;;;;17.90;16.60;;;10.30;99.90;;;;;;5090730;28;20457;-70
2021/11/07 06:29:06;;;;;;;21.27;19.30;;;10.30;99.90;;;;;;5096026;28;20462;-72
2021/11/07 06:31:33;;;;;;;25.87;22.93;;;10.40;99.90;;;;;;5098220;28;20488;-71
2021/11/07 06:34:00;;;;;;;22.83;20.73;;;10.30;99.90;;;;;;5092997;28;20457;-73
2021/11/07 06:36:29;;;;;;;25.87;23.53;;;10.40;99.90;;;;;;5098969;28;20992;-71
2021/11/07 06:38:58;;;;;;;20.57;18.93;;;10.40;99.90;;;;;;5093107;28;20486;-76
2021/11/07 06:41:25;;;;;;;20.73;18.90;;;10.40;99.90;;;;;;5096796;28;20535;-71
2021/11/07 06:43:54;;;;;;;24.67;22.77;;;10.40;99.90;;;;;;5100383;28;20821;-70
2021/11/07 06:46:22;;;;;;;28.63;26.37;;;10.30;99.90;;;;;;5099565;28;20566;-73
2021/11/07 06:48:49;;;;;;;27.53;25.20;;;10.20;99.90;;;;;;5094093;28;20457;-74
2021/11/07 06:51:17;;;;;;;29.00;26.60;;;10.20;99.90;;;;;;5103432;28;20458;-73
2021/11/07 06:53:45;;;;;;;30.80;28.60;;;10.20;99.90;;;;;;5092861;28;20464;-71
2021/11/07 06:56:12;;;;;;;27.90;25.90;;;10.10;99.90;;;;;;5091556;28;20495;-74
2021/11/07 06:58:41;;;;;;;25.33;23.33;;;10.20;99.90;;;;;;5089139;28;20505;-74
2021/11/07 07:01:08;;;;;;;27.70;25.70;;;10.10;99.90;;;;;;5094588;28;20496;-70
2021/11/07 07:03:35;;;;;;;26.63;24.60;;;10.10;99.90;;;;;;5096439;28;20519;-72
2021/11/07 07:06:03;;;;;;;26.97;24.93;;;10.10;99.90;;;;;;5089063;28;20461;-69
2021/11/07 07:08:39;;;;;;;26.53;24.40;;;10.10;99.90;;;;;;5102803;28;20963;-75
2021/11/07 07:11:11;;;;;;;25.53;23.63;;;10.10;99.90;;;;;;5095217;28;20597;-70
2021/11/07 07:13:44;;;;;;;30.47;27.90;;;10.20;99.90;;;;;;5096585;28;20466;-72
2021/11/07 07:16:21;;;;;;;33.23;29.90;;;10.20;99.90;;;;;;5091451;28;20828;-70
2021/11/07 07:18:58;;;;;;;30.20;27.57;;;10.30;99.90;;;;;;5098172;28;20469;-71
2021/11/07 07:21:37;;;;;;;29.77;27.27;;;10.30;99.90;;;;;;5088546;28;20488;-70
2021/11/07 07:24:43;;;;;;;28.67;26.50;;;10.30;99.90;;;;;;5094457;28;21022;-71
2021/11/07 07:30:11;;;;;;;27.17;24.80;;;10.40;99.90;;;;;;5089103;28;20963;-74
2021/11/07 07:32:46;;;;;;;26.63;24.27;;;10.40;99.90;;;;;;5095891;28;20473;-71
2021/11/07 07:35:15;;;;;;;27.43;24.90;;;10.40;99.90;;;;;;5090690;28;20846;-71
2021/11/07 07:37:42;;;;;;;28.07;25.50;;;10.30;99.90;;;;;;5093359;28;20463;-74
2021/11/07 07:40:10;;;;;;;26.77;24.67;;;10.40;99.90;;;;;;5092672;28;20464;-70
2021/11/07 07:42:38;;;;;;;27.17;24.67;;;10.30;99.90;;;;;;5094950;28;20456;-71
2021/11/07 07:45:07;;;;;;;27.10;24.80;;;10.30;99.90;;;;;;5090981;28;20468;-70
2021/11/07 07:47:34;;;;;;;26.40;24.23;;;10.30;99.90;;;;;;5101051;28;21433;-71
2021/11/07 07:50:02;;;;;;;24.87;22.77;;;10.20;99.90;;;;;;5097462;28;20820;-71
2021/11/07 07:52:29;;;;;;;23.33;21.50;;;10.20;99.90;;;;;;5094314;28;20464;-73
2021/11/07 07:54:58;;;;;;;24.23;22.23;;;10.20;99.90;;;;;;5094153;28;20510;-71
2021/11/07 07:57:25;;;;;;;25.73;23.13;;;10.30;99.90;;;;;;5089422;28;20533;-70
2021/11/07 07:59:54;;;;;;;24.37;22.20;;;10.30;99.90;;;;;;5094261;28;20837;-70
2021/11/07 08:02:21;;;;;;;21.90;20.10;;;10.30;99.90;;;;;;5096199;28;20497;-71
2021/11/07 08:04:49;;;;;;;21.23;19.30;;;10.30;99.90;;;;;;5092214;28;20459;-68
2021/11/07 08:07:16;;;;;;;22.13;20.00;;;10.40;99.90;;;;;;5088667;28;20462;-68
2021/11/07 08:09:43;;;;;;;20.80;18.57;;;10.50;99.90;;;;;;5093601;28;20956;-69
2021/11/07 08:12:10;;;;;;;23.00;18.50;;;10.60;99.90;;;;;;5100369;28;20469;-69
2021/11/07 08:14:37;;;;;;;20.30;18.20;;;10.60;99.90;;;;;;5094531;28;20469;-70
2021/11/07 08:17:06;;;;;;;22.00;18.97;;;10.70;99.90;;;;;;5094868;28;20804;-70
2021/11/07 08:19:33;;;;;;;31.00;19.50;;;10.80;99.90;;;;;;5094832;28;20516;-69
2021/11/07 08:22:01;;;;;;;19.13;17.40;;;10.90;99.90;;;;;;5096056;28;20499;-70
2021/11/07 08:24:28;;;;;;;21.23;18.00;;;10.80;99.90;;;;;;5091057;28;20981;-69
2021/11/07 08:26:55;;;;;;;22.43;18.03;;;10.80;99.90;;;;;;5092693;28;20468;-70
2021/11/07 08:29:23;;;;;;;21.00;18.90;;;10.80;99.90;;;;;;5093579;28;20916;-69
2021/11/07 08:31:53;;;;;;;19.67;17.87;;;10.90;99.90;;;;;;5094778;28;20485;-69
2021/11/07 08:34:25;;;;;;;20.97;18.83;;;11.00;99.90;;;;;;5090447;28;20995;-70
2021/11/07 08:36:57;;;;;;;25.27;18.90;;;11.10;99.90;;;;;;5090570;28;20482;-70
2021/11/07 08:39:27;;;;;;;20.70;17.13;;;11.10;99.90;;;;;;5090890;28;20821;-72
2021/11/07 08:41:59;;;;;;;19.07;17.27;;;11.10;99.90;;;;;;5095764;28;20480;-70
2021/11/07 09:01:00;;;;;;;19.30;17.57;;;11.50;99.90;;;;;;5094867;28;21031;-73
2021/11/07 09:03:42;;;;;;;22.83;16.87;;;11.50;99.90;;;;;;5099674;28;20576;-69
2021/11/07 09:06:23;;;;;;;17.60;15.70;;;11.50;99.90;;;;;;5094435;28;20485;-69
2021/11/07 09:08:51;;;;;;;18.20;15.93;;;11.50;99.90;;;;;;5097902;28;20470;-70
2021/11/07 09:11:19;;;;;;;24.23;17.53;;;11.50;99.90;;;;;;5097184;28;20500;-71
2021/11/07 09:13:46;;;;;;;18.57;16.40;;;11.50;99.90;;;;;;5099636;28;20457;-69
2021/11/07 09:16:14;;;;;;;19.30;16.00;;;11.60;99.90;;;;;;5096814;28;21501;-70
2021/11/07 09:18:41;;;;;;;16.57;15.10;;;11.60;99.90;;;;;;5093532;28;20462;-70
2021/11/07 09:21:14;;;;;;;23.20;15.47;;;11.80;99.90;;;;;;5102690;28;20477;-74
2021/11/07 09:23:45;;;;;;;17.77;14.30;;;11.80;99.90;;;;;;5093929;28;20501;-71
2021/11/07 09:26:27;;;;;;;16.37;14.63;;;11.90;99.90;;;;;;5097318;28;20453;-73
2021/11/07 09:28:58;;;;;;;18.27;15.10;;;11.90;99.90;;;;;;5094382;28;20454;-70
2021/11/07 09:31:37;;;;;;;16.50;14.17;;;11.90;99.90;;;;;;5099804;28;20481;-70
2021/11/07 09:34:17;;;;;;;19.13;15.53;;;11.90;99.90;;;;;;5095991;28;20487;-71
2021/11/07 09:36:49;;;;;;;23.87;14.80;;;11.90;99.90;;;;;;5099447;28;20468;-72
2021/11/07 09:39:23;;;;;;;19.87;14.47;;;12.00;99.90;;;;;;5090937;28;20462;-70
2021/11/07 09:42:03;;;;;;;15.70;14.27;;;12.10;99.90;;;;;;5092357;28;20478;-69
2021/11/07 09:44:38;;;;;;;15.53;14.00;;;12.10;99.90;;;;;;5098507;28;21019;-70
2021/11/07 09:47:07;;;;;;;14.80;13.37;;;12.20;99.90;;;;;;5098051;28;20944;-69
2021/11/07 09:49:43;;;;;;;15.23;13.73;;;12.20;99.90;;;;;;5092681;28;20480;-72
2021/11/07 09:52:14;;;;;;;19.17;14.40;;;12.20;99.90;;;;;;5096212;28;20453;-74
2021/11/07 09:54:44;;;;;;;15.73;13.83;;;12.20;99.90;;;;;;5090379;28;20990;-73
2021/11/07 09:57:16;;;;;;;15.27;13.97;;;12.20;99.90;;;;;;5090952;28;20477;-72
2021/11/07 09:59:44;;;;;;;19.90;14.00;;;12.10;99.90;;;;;;5102254;28;20557;-71
2021/11/07 10:02:13;;;;;;;19.63;14.83;;;12.10;99.90;;;;;;5096191;28;20490;-70
2021/11/07 10:04:41;;;;;;;20.93;15.20;;;12.00;99.90;;;;;;5095513;28;20504;-70
2021/11/07 10:07:20;;;;;;;19.40;15.50;;;12.00;99.90;;;;;;5090342;28;20458;-74
2021/11/07 10:09:52;;;;;;;23.77;15.00;;;12.00;99.90;;;;;;5089032;28;20469;-75
2021/11/07 10:12:22;;;;;;;19.10;15.50;;;12.10;99.90;;;;;;5093494;28;20488;-70
2021/11/07 10:14:54;;;;;;;15.73;14.30;;;12.20;99.90;;;;;;5099100;28;20457;-71
2021/11/07 10:17:32;;;;;;;16.27;14.70;;;12.10;99.90;;;;;;5100385;28;20492;-70
2021/11/07 10:20:19;;;;;;;16.37;14.80;;;12.20;99.90;;;;;;5095859;28;20464;-70
2021/11/07 10:22:53;;;;;;;24.47;16.27;;;12.10;99.90;;;;;;5095663;28;20837;-70
2021/11/07 10:25:22;;;;;;;19.40;14.20;;;12.10;99.90;;;;;;5093203;28;20963;-73
2021/11/07 10:27:53;;;;;;;20.80;16.17;;;12.10;99.90;;;;;;5100212;28;20510;-72
2021/11/07 10:30:24;;;;;;;26.93;15.40;;;12.20;99.90;;;;;;5098791;28;20520;-73
2021/11/07 10:33:10;;;;;;;18.90;15.13;;;12.10;99.90;;;;;;5094927;28;20454;-70
2021/11/07 10:35:50;;;;;;;15.67;14.10;;;12.20;99.90;;;;;;5093778;28;20518;-70
2021/11/07 10:41:40;;;;;;;21.60;14.80;;;12.30;99.90;;;;;;5041378;28;20536;-71
2021/11/07 10:47:11;;;;;;;16.63;15.07;;;11.80;99.90;;;;;;5097599;28;20451;-72
2021/11/07 10:52:32;;;;;;;15.93;14.30;;;12.10;99.90;;;;;;5066172;28;20457;-69
2021/11/07 10:55:02;;;;;;;19.00;14.20;;;12.70;99.90;;;;;;5099150;28;20545;-69
2021/11/07 10:57:31;;;;;;;16.97;13.73;;;13.20;99.90;;;;;;5096530;28;20472;-69
2021/11/07 11:00:22;;;;;;;16.30;14.90;;;13.50;99.90;;;;;;5093087;28;20962;-69
2021/11/07 11:02:51;;;;;;;19.73;14.27;;;13.60;99.90;;;;;;5091923;28;20810;-69
2021/11/07 11:05:20;;;;;;;15.97;13.93;;;13.80;99.90;;;;;;5095786;28;20474;-72
2021/11/07 11:08:04;;;;;;;18.83;13.50;;;14.00;99.90;;;;;;5097841;28;21976;-70
2021/11/07 11:10:40;;;;;;;22.37;14.47;;;13.80;99.90;;;;;;5093675;28;20442;-70
2021/11/07 11:19:10;;;;;;;16.60;15.10;;;13.30;99.90;;;;;;5091263;28;20815;-70
2021/11/07 11:27:26;;;;;;;15.57;14.17;;;12.50;99.90;;;;;;5067257;28;20977;-70
2021/11/07 11:30:10;;;;;;;16.70;15.07;;;12.30;99.90;;;;;;5094194;28;20964;-70
2021/11/07 11:32:44;;;;;;;16.77;15.10;;;12.20;99.90;;;;;;5093801;28;20488;-70
2021/11/07 11:35:15;;;;;;;21.43;14.80;;;12.00;99.90;;;;;;5092107;28;21017;-70
2021/11/07 11:37:52;;;;;;;15.63;14.20;;;12.10;99.90;;;;;;5094604;28;20454;-70
2021/11/07 11:40:23;;;;;;;22.93;14.63;;;12.10;99.90;;;;;;5096391;28;20457;-70
2021/11/07 11:42:56;;;;;;;23.10;14.60;;;12.10;99.90;;;;;;5092627;28;20578;-70
2021/11/07 11:45:26;;;;;;;16.17;14.87;;;12.00;99.90;;;;;;5088316;28;20463;-70
2021/11/07 11:48:36;;;;;;;17.33;14.67;;;12.10;99.90;;;;;;5098427;28;20878;-70
2021/11/07 11:57:13;;;;;;;15.63;14.37;;;12.10;99.90;;;;;;5061769;28;20511;-69
2021/11/07 11:59:49;;;;;;;21.73;14.43;;;11.90;99.90;;;;;;5098310;28;20463;-73
2021/11/07 12:02:22;;;;;;;19.97;14.80;;;11.70;99.90;;;;;;5094623;28;20480;-70
2021/11/07 12:05:18;;;;;;;25.77;14.73;;;11.90;99.90;;;;;;5095823;28;20460;-70
2021/11/07 12:08:27;;;;;;;27.40;15.43;;;11.90;99.90;;;;;;5092330;28;20449;-72
2021/11/07 12:11:18;;;;;;;20.37;15.37;;;12.00;99.90;;;;;;5090841;28;20462;-70
2021/11/07 12:13:49;;;;;;;19.07;14.53;;;12.00;99.90;;;;;;5090207;28;20464;-70
2021/11/07 12:16:38;;;;;;;18.73;14.03;;;12.10;99.90;;;;;;5086216;28;20506;-70
2021/11/07 12:19:08;;;;;;;19.93;15.00;;;12.20;99.90;;;;;;5086919;28;21040;-71
2021/11/07 12:21:58;;;;;;;16.30;13.50;;;12.30;99.90;;;;;;5091961;28;20576;-71
2021/11/07 12:24:27;;;;;;;16.90;14.43;;;12.40;99.90;;;;;;5095953;28;20481;-69
2021/11/07 12:27:14;;;;;;;15.63;14.23;;;12.50;99.90;;;;;;5093299;28;20968;-70
2021/11/07 12:29:43;;;;;;;16.87;15.23;;;12.50;99.90;;;;;;5091291;28;20485;-70
2021/11/07 12:32:13;;;;;;;21.03;15.70;;;12.70;99.90;;;;;;5097797;28;21013;-73
2021/11/07 12:35:05;;;;;;;29.50;14.60;;;12.70;99.90;;;;;;5094685;28;20476;-73
2021/11/07 12:40:48;;;;;;;17.13;14.80;;;12.70;99.90;;;;;;5101706;28;20994;-73
2021/11/07 12:43:18;;;;;;;15.50;13.57;;;12.60;99.90;;;;;;5095896;28;20486;-74
2021/11/07 12:45:52;;;;;;;20.57;14.70;;;12.60;99.90;;;;;;5102313;28;20465;-74
2021/11/07 12:48:40;;;;;;;17.27;14.03;;;12.50;99.90;;;;;;5100553;28;20453;-70
2021/11/07 12:51:08;;;;;;;15.87;14.27;;;12.50;99.90;;;;;;5094132;28;20472;-70
2021/11/07 12:53:58;;;;;;;15.27;13.73;;;12.50;99.90;;;;;;5098618;28;20491;-69
2021/11/07 12:56:40;;;;;;;18.10;13.47;;;12.80;99.90;;;;;;5106627;28;20465;-70
2021/11/07 12:59:10;;;;;;;17.13;13.93;;;13.00;99.90;;;;;;5106768;28;20527;-71
2021/11/07 13:02:14;;;;;;;16.73;14.77;;;13.10;99.90;;;;;;5096093;28;20466;-69
2021/11/07 13:04:50;;;;;;;16.53;14.73;;;13.40;99.90;;;;;;5039288;28;20468;-73
2021/11/07 13:07:27;;;;;;;23.70;15.77;;;13.80;99.90;;;;;;5091552;28;20823;-69
2021/11/07 13:09:58;;;;;;;16.17;14.97;;;14.10;99.90;;;;;;5098788;28;20484;-70
2021/11/07 13:12:29;;;;;;;16.53;14.90;;;14.20;99.90;;;;;;5097090;28;20470;-69
2021/11/07 13:15:26;;;;;;;17.23;15.63;;;14.50;99.90;;;;;;5101696;28;20463;-69
2021/11/07 13:21:06;;;;;;;17.60;15.97;;;14.50;99.90;;;;;;5103377;28;20456;-71
2021/11/07 13:23:50;;;;;;;17.70;16.10;;;14.10;99.90;;;;;;5103843;28;20542;-71
2021/11/07 13:29:27;;;;;;;18.67;16.67;;;13.80;99.90;;;;;;5089983;28;20464;-73
2021/11/07 13:32:00;;;;;;;17.70;16.20;;;13.50;99.90;;;;;;5095397;28;20929;-69
2021/11/07 13:34:30;;;;;;;19.13;15.30;;;13.20;99.90;;;;;;5094129;28;20464;-71
2021/11/07 13:37:00;;;;;;;17.43;15.80;;;13.00;99.90;;;;;;5092206;28;20464;-69
2021/11/07 13:39:31;;;;;;;21.00;16.10;;;12.80;99.90;;;;;;5096253;28;20462;-69
2021/11/07 13:42:09;;;;;;;18.10;16.17;;;12.70;99.90;;;;;;5096155;28;20892;-69
2021/11/07 13:44:46;;;;;;;16.60;15.10;;;12.80;99.90;;;;;;5095749;28;20538;-72
2021/11/07 13:47:14;;;;;;;16.60;14.90;;;12.70;99.90;;;;;;5102996;28;20461;-69
2021/11/07 13:49:54;;;;;;;18.83;15.70;;;12.90;99.90;;;;;;5095530;28;20766;-69